Time;durP1;ratioP1;P1;durP2;ratioP2;P2;SDS_P1;SDS_P2;PMS_P1;PMS_P2;Temp;Humidity;BMP_temperature;BMP_pressure;BME280_temperature;BME280_humidity;BME280_pressure;Samples;Min_cycle;Max_cycle;Signal;HPM_P1;HPM_P2
2022/12/28 00:03:05;;;;;;;1.70;0.80;;;;;;;16.51;56.64;97449.28;10393736;28;20029;-29
2022/12/28 00:08:05;;;;;;;1.10;0.50;;;;;;;16.47;56.48;97437.44;10398347;28;20288;-29
2022/12/28 00:13:06;;;;;;;1.07;0.53;;;;;;;16.49;56.17;97433.25;10394390;28;20057;-29
2022/12/28 00:18:06;;;;;;;0.57;0.50;;;;;;;16.51;55.52;97421.50;10395273;28;20292;-29
2022/12/28 00:23:06;;;;;;;2.23;0.63;;;;;;;16.61;56.06;97436.00;10390212;28;20292;-31
2022/12/28 00:28:07;;;;;;;0.80;0.60;;;;;;;16.63;56.67;97426.75;10395403;28;20112;-29
2022/12/28 00:33:07;;;;;;;0.73;0.50;;;;;;;16.61;55.32;97433.47;10396445;28;20541;-30
2022/12/28 00:38:07;;;;;;;1.15;0.52;;;;;;;16.64;55.12;97420.91;10397811;28;20033;-29
2022/12/28 00:43:08;;;;;;;0.93;0.57;;;;;;;16.64;55.09;97415.84;10396760;28;20053;-28
2022/12/28 00:48:08;;;;;;;0.73;0.50;;;;;;;16.63;55.24;97411.59;10401275;28;20030;-29
2022/12/28 00:53:09;;;;;;;1.40;0.60;;;;;;;16.65;55.28;97409.09;10404672;28;20116;-29
2022/12/28 00:58:10;;;;;;;0.80;0.50;;;;;;;16.62;55.40;97407.34;10400663;28;20034;-30
2022/12/28 01:03:10;;;;;;;0.57;0.43;;;;;;;16.63;55.08;97393.06;10401430;28;20041;-29
2022/12/28 01:08:10;;;;;;;0.80;0.63;;;;;;;16.62;55.14;97398.94;10398849;28;20033;-29
2022/12/28 01:13:12;;;;;;;0.77;0.40;;;;;;;16.63;55.25;97403.16;10399346;28;20034;-29
2022/12/28 01:18:12;;;;;;;1.13;0.43;;;;;;;16.63;54.89;97403.16;10397911;28;20025;-31
2022/12/28 01:23:12;;;;;;;1.13;0.53;;;;;;;16.58;55.01;97405.63;10398810;28;20037;-29
2022/12/28 01:28:13;;;;;;;0.60;0.50;;;;;;;16.47;55.14;97375.91;10399157;28;20035;-29
2022/12/28 01:33:13;;;;;;;1.53;0.60;;;;;;;16.43;55.55;97362.38;10404730;28;20038;-29
2022/12/28 01:38:13;;;;;;;0.80;0.50;;;;;;;16.53;55.77;97356.66;10401579;28;20036;-30
2022/12/28 01:43:14;;;;;;;1.50;0.63;;;;;;;16.53;55.39;97356.66;10399027;28;20055;-29
2022/12/28 01:48:21;;;;;;;0.50;0.50;;;;;;;16.57;55.60;97360.06;10405153;28;20056;-29
2022/12/28 01:53:22;;;;;;;1.20;0.43;;;;;;;16.53;55.46;97354.13;10403032;28;20125;-30
2022/12/28 01:58:27;;;;;;;1.10;0.50;;;;;;;16.50;55.65;97361.66;10397486;28;20066;-30
2022/12/28 02:03:31;;;;;;;1.08;0.82;;;;;;;16.46;55.63;97354.81;10401140;28;20045;-29
2022/12/28 02:08:45;;;;;;;0.82;0.40;;;;;;;16.42;55.51;97347.16;10407870;28;20029;-30
2022/12/28 02:13:48;;;;;;;1.98;0.93;;;;;;;16.43;55.38;97353.91;10394851;28;20592;-29
2022/12/28 02:18:48;;;;;;;1.20;0.95;;;;;;;16.44;55.10;97346.38;10400955;28;20125;-29
2022/12/28 02:24:10;;;;;;;1.80;0.88;;;;;;;16.47;54.83;97338.00;10397324;28;20182;-28
2022/12/28 02:29:30;;;;;;;1.95;1.10;;;;;;;16.44;55.24;97336.25;10407384;28;20053;-28
2022/12/28 02:35:05;;;;;;;1.42;0.88;;;;;;;16.44;55.22;97323.63;10409208;28;20033;-29
2022/12/28 02:40:17;;;;;;;1.63;1.10;;;;;;;16.44;55.56;97305.94;10385664;28;20041;-29
2022/12/28 02:51:29;;;;;;;2.03;1.17;;;;;;;16.36;55.49;97276.28;10446438;27;20453;-29
2022/12/28 02:56:54;;;;;;;2.78;1.27;;;;;;;16.44;55.23;97270.56;10394059;28;20026;-28
2022/12/28 03:02:22;;;;;;;1.80;1.33;;;;;;;16.47;55.55;97255.47;10392383;28;20025;-30
2022/12/28 03:13:04;;;;;;;2.00;1.20;;;;;;;16.40;55.13;97253.66;10389706;28;20017;-28
2022/12/28 03:34:19;;;;;;;2.08;1.20;;;;;;;16.33;54.45;97211.38;10393161;28;20048;-29
2022/12/28 03:39:49;;;;;;;1.83;1.20;;;;;;;16.52;54.61;97248.78;10394971;28;20082;-29
2022/12/28 03:44:56;;;;;;;2.13;1.17;;;;;;;16.52;54.20;97241.22;10391205;28;20034;-30
2022/12/28 03:49:57;;;;;;;1.73;1.20;;;;;;;16.53;54.05;97229.44;10392337;28;20149;-29
2022/12/28 03:54:58;;;;;;;2.97;1.58;;;;;;;16.47;54.56;97209.97;10395250;28;20065;-29
2022/12/28 03:59:58;;;;;;;3.30;1.70;;;;;;;16.52;54.07;97208.34;10389869;28;20166;-31
2022/12/28 04:04:59;;;;;;;2.13;1.40;;;;;;;16.52;54.36;97198.25;10391799;28;20518;-30
2022/12/28 04:09:59;;;;;;;1.87;1.23;;;;;;;16.47;54.51;97204.06;10392621;28;20017;-29
2022/12/28 04:14:59;;;;;;;2.05;1.40;;;;;;;16.43;54.76;97193.03;10390002;28;20322;-29
2022/12/28 04:20:02;;;;;;;3.08;1.20;;;;;;;16.45;55.50;97201.50;10394824;28;20025;-30
2022/12/28 04:25:04;;;;;;;2.60;1.38;;;;;;;16.50;54.96;97206.63;10393056;28;20029;-29
2022/12/28 04:30:07;;;;;;;2.25;1.40;;;;;;;16.39;55.22;97206.47;10389847;28;20040;-29
2022/12/28 04:35:09;;;;;;;2.90;1.60;;;;;;;16.43;54.83;97200.63;10390831;28;20053;-29
2022/12/28 04:40:17;;;;;;;2.83;1.48;;;;;;;16.42;54.68;97214.09;10393442;28;20093;-31
2022/12/28 04:45:18;;;;;;;2.50;1.30;;;;;;;16.43;54.68;97213.25;10395432;28;20455;-29
2022/12/28 04:50:18;;;;;;;1.80;1.20;;;;;;;16.46;54.47;97209.94;10435944;28;20037;-29
2022/12/28 04:55:19;;;;;;;1.80;1.37;;;;;;;16.47;54.09;97199.00;10424109;28;20048;-30
2022/12/28 05:00:19;;;;;;;1.98;1.17;;;;;;;16.52;53.81;97192.34;10388202;28;20029;-30
2022/12/28 05:05:19;;;;;;;1.98;1.25;;;;;;;16.54;54.20;97204.16;10397120;28;20033;-29
2022/12/28 05:10:20;;;;;;;2.27;1.40;;;;;;;16.56;53.61;97199.13;10393081;28;20060;-29
2022/12/28 05:15:21;;;;;;;3.40;1.48;;;;;;;16.55;53.84;97198.28;10396826;28;20114;-29
2022/12/28 05:20:21;;;;;;;2.15;1.45;;;;;;;16.47;53.92;97199.00;10394329;28;20044;-29
2022/12/28 05:25:21;;;;;;;3.20;1.55;;;;;;;16.44;53.68;97187.16;10396127;28;20049;-29
2022/12/28 05:30:22;;;;;;;2.47;1.50;;;;;;;16.61;53.56;97195.00;10411468;27;20260;-29
2022/12/28 05:35:22;;;;;;;3.60;1.60;;;;;;;16.66;53.53;97208.56;10485833;27;20398;-29
2022/12/28 05:40:22;;;;;;;3.40;2.07;;;;;;;16.67;53.57;97194.25;10399328;28;20025;-28
2022/12/28 05:45:23;;;;;;;2.83;1.63;;;;;;;16.64;53.29;97192.53;10437888;27;20029;-29
2022/12/28 05:50:23;;;;;;;2.93;1.70;;;;;;;16.61;53.00;97178.16;10503732;27;20521;-31
2022/12/28 05:55:24;;;;;;;6.57;2.05;;;;;;;16.58;52.95;97173.06;10460653;27;20029;-29
2022/12/28 06:00:24;;;;;;;4.93;2.07;;;;;;;16.59;53.99;97189.06;10477761;27;20034;-30
2022/12/28 06:05:26;;;;;;;3.37;1.90;;;;;;;16.58;53.79;97185.69;10402772;28;20037;-30
2022/12/28 06:10:26;;;;;;;5.18;1.90;;;;;;;16.56;54.40;97173.88;10397298;28;20056;-29
2022/12/28 06:15:26;;;;;;;5.27;2.10;;;;;;;16.57;54.32;97186.53;10401929;28;20487;-29
2022/12/28 06:20:26;;;;;;;3.87;2.10;;;;;;;16.53;54.76;97179.72;10401244;28;20039;-29
2022/12/28 06:25:27;;;;;;;3.63;1.90;;;;;;;16.50;54.67;97140.91;10397895;28;20025;-29
2022/12/28 06:30:27;;;;;;;4.10;1.93;;;;;;;16.50;54.07;97134.19;10401670;28;20033;-31
2022/12/28 06:35:28;;;;;;;2.13;1.37;;;;;;;16.49;54.61;97129.97;10397899;28;20318;-29
2022/12/28 06:40:28;;;;;;;4.35;1.80;;;;;;;16.48;54.72;97130.81;10398917;28;20034;-30
2022/12/28 06:45:29;;;;;;;3.03;1.48;;;;;;;16.47;54.58;97129.09;10395020;28;20034;-29
2022/12/28 06:50:29;;;;;;;5.88;1.75;;;;;;;16.44;54.96;97145.91;10398049;28;20048;-28
2022/12/28 06:55:29;;;;;;;8.65;1.75;;;;;;;16.51;54.20;97140.94;10398553;28;20029;-29
2022/12/28 07:00:30;;;;;;;4.17;1.67;;;;;;;16.52;54.99;97150.22;10395014;28;20033;-28
2022/12/28 07:05:30;;;;;;;2.58;1.70;;;;;;;16.53;54.88;97139.28;10396804;28;20800;-29
2022/12/28 07:10:32;;;;;;;1.87;1.20;;;;;;;16.47;54.52;97131.63;10395687;28;20552;-29
2022/12/28 07:15:35;;;;;;;3.13;1.70;;;;;;;16.43;55.16;97127.34;10394487;28;20316;-29
2022/12/28 07:20:35;;;;;;;2.67;1.27;;;;;;;16.42;54.88;97129.84;10401173;28;20124;-29
2022/12/28 07:25:36;;;;;;;2.47;1.63;;;;;;;16.46;54.57;97118.97;10395978;28;20033;-29
2022/12/28 07:30:36;;;;;;;4.60;1.60;;;;;;;16.48;54.04;97113.09;10402235;28;20113;-29
2022/12/28 07:35:36;;;;;;;1.50;1.10;;;;;;;16.49;54.22;97107.22;10393356;28;20491;-29
2022/12/28 07:40:37;;;;;;;1.73;1.10;;;;;;;16.39;54.29;97095.28;10396445;28;20043;-29
2022/12/28 07:45:37;;;;;;;3.40;1.40;;;;;;;16.44;54.53;97108.81;10398754;28;20025;-29
2022/12/28 07:50:37;;;;;;;3.03;1.33;;;;;;;16.42;54.86;97100.38;10393875;28;20299;-29
2022/12/28 07:55:39;;;;;;;3.37;1.60;;;;;;;16.42;54.67;97105.44;10395975;28;20884;-27
2022/12/28 08:00:39;;;;;;;2.03;1.33;;;;;;;16.42;54.60;97102.91;10392563;28;20633;-29
2022/12/28 08:05:40;;;;;;;1.97;1.37;;;;;;;16.42;54.29;97110.50;10399936;28;20037;-29
2022/12/28 08:10:40;;;;;;;2.40;1.27;;;;;;;16.34;54.45;97090.94;10394893;28;20078;-29
2022/12/28 08:15:40;;;;;;;2.40;1.40;;;;;;;16.30;54.88;97084.16;10397724;28;20879;-29
2022/12/28 08:20:41;;;;;;;1.40;0.90;;;;;;;16.38;54.76;97087.69;10398364;28;20394;-29
2022/12/28 08:25:41;;;;;;;1.80;1.00;;;;;;;16.42;54.66;97095.31;10394114;28;20037;-30
2022/12/28 08:30:41;;;;;;;2.40;1.00;;;;;;;16.39;54.69;97084.31;10396802;28;20101;-29
2022/12/28 08:35:42;;;;;;;1.73;1.20;;;;;;;16.36;54.83;97090.16;10393275;28;20034;-29
2022/12/28 08:40:42;;;;;;;1.53;1.10;;;;;;;16.33;54.37;97090.13;10394861;28;20045;-29
2022/12/28 08:45:42;;;;;;;1.77;0.90;;;;;;;16.31;54.88;97083.34;10392653;28;20090;-29
2022/12/28 08:50:43;;;;;;;1.80;1.07;;;;;;;16.32;54.73;97083.38;10392265;28;20034;-29
2022/12/28 08:55:43;;;;;;;2.50;1.20;;;;;;;16.31;54.60;97074.09;10394268;28;20040;-29
2022/12/28 09:00:43;;;;;;;1.47;0.90;;;;;;;16.30;54.47;97069.84;10399978;28;20041;-30
2022/12/28 09:05:44;;;;;;;1.30;0.80;;;;;;;16.30;54.62;97059.72;10401491;28;20336;-30
2022/12/28 09:10:44;;;;;;;1.10;0.80;;;;;;;16.28;54.72;97050.47;10399632;28;20044;-29
2022/12/28 09:15:55;;;;;;;1.80;1.23;;;;;;;16.30;54.61;97063.94;10403719;28;20036;-29
2022/12/28 09:20:56;;;;;;;2.15;1.05;;;;;;;16.29;54.84;97055.50;10405118;28;20483;-29
2022/12/28 09:26:22;;;;;;;1.55;0.98;;;;;;;16.30;54.48;97049.63;10399469;28;20021;-28
2022/12/28 09:31:25;;;;;;;2.42;1.73;;;;;;;16.31;55.12;97048.81;10397727;28;20552;-30
2022/12/28 09:36:30;;;;;;;2.40;1.50;;;;;;;16.37;54.92;97050.63;10398979;28;20040;-29
2022/12/28 09:41:33;;;;;;;1.08;0.90;;;;;;;16.35;54.94;97032.03;10400658;28;20045;-29
2022/12/28 09:46:35;;;;;;;2.47;1.58;;;;;;;16.35;55.15;97037.91;10401702;28;20025;-29
2022/12/28 09:51:46;;;;;;;1.90;1.33;;;;;;;16.32;55.19;97035.34;10399582;28;20025;-29
2022/12/28 09:56:47;;;;;;;3.00;2.58;;;;;;;16.33;55.50;97034.53;10396236;28;20032;-28
2022/12/28 10:01:54;;;;;;;1.75;1.40;;;;;;;16.33;55.33;97029.47;10402446;28;20413;-30
2022/12/28 10:06:56;;;;;;;2.58;1.60;;;;;;;16.30;55.21;97019.31;10402538;28;20034;-30
2022/12/28 10:11:59;;;;;;;2.67;1.80;;;;;;;16.31;55.34;97005.88;10402447;28;20487;-29
2022/12/28 10:17:00;;;;;;;2.33;1.27;;;;;;;16.30;55.29;97011.72;10401959;28;20653;-28
2022/12/28 10:22:07;;;;;;;1.50;1.30;;;;;;;16.30;55.55;97004.16;10397993;28;20094;-30
2022/12/28 10:27:12;;;;;;;;;;;;;;;16.32;55.67;97007.56;10401328;28;20025;-29
2022/12/28 10:32:12;;;;;;;2.50;1.77;;;;;;;16.26;55.50;96999.03;10396121;28;20409;-30
2022/12/28 10:37:15;;;;;;;2.25;1.55;;;;;;;16.26;55.65;96996.50;10396484;28;20031;-29
2022/12/28 10:42:39;;;;;;;1.65;1.08;;;;;;;16.24;55.48;96978.84;10398624;28;20037;-29
2022/12/28 10:47:48;;;;;;;2.08;1.27;;;;;;;16.30;55.81;96983.94;10395074;28;20049;-29
2022/12/28 10:52:56;;;;;;;1.80;1.40;;;;;;;16.26;56.20;96967.06;10396981;28;20452;-31
2022/12/28 10:58:35;;;;;;;1.95;1.60;;;;;;;16.31;55.94;96964.59;10401807;28;20033;-29
2022/12/28 11:03:38;;;;;;;2.90;1.38;;;;;;;16.24;55.63;96948.53;10489552;28;20045;-29
2022/12/28 11:08:40;;;;;;;2.15;1.52;;;;;;;16.30;55.35;96947.75;10412204;28;20113;-29
2022/12/28 11:13:41;;;;;;;1.45;1.00;;;;;;;16.24;55.35;96938.41;10399980;28;20044;-29
2022/12/28 11:18:42;;;;;;;2.35;1.65;;;;;;;16.28;55.23;96934.25;10388847;28;20025;-29
2022/12/28 11:23:43;;;;;;;1.77;1.30;;;;;;;16.28;55.40;96927.50;10394598;28;20038;-29
2022/12/28 11:28:47;;;;;;;1.65;1.20;;;;;;;16.31;55.35;96922.50;10400245;28;20299;-29
2022/12/28 11:33:51;;;;;;;2.25;1.63;;;;;;;16.36;54.98;96920.84;10396715;28;20033;-29
2022/12/28 11:38:55;;;;;;;1.77;1.58;;;;;;;16.39;54.78;96918.41;10395780;28;20065;-29
2022/12/28 11:44:01;;;;;;;2.67;1.67;;;;;;;16.41;54.91;96919.28;10392011;28;20061;-29
2022/12/28 11:49:03;;;;;;;1.52;1.27;;;;;;;16.37;54.93;96904.91;10394598;28;20491;-29
2022/12/28 11:54:37;;;;;;;3.13;1.88;;;;;;;16.40;55.14;96899.91;10399023;28;20536;-30
2022/12/28 11:59:38;;;;;;;1.63;1.30;;;;;;;16.40;54.93;96887.25;10390732;28;20029;-29
2022/12/28 12:04:41;;;;;;;1.97;1.23;;;;;;;16.39;54.22;96875.47;10395769;28;20033;-30
2022/12/28 12:09:44;;;;;;;1.40;1.20;;;;;;;16.46;54.82;96877.19;10395536;28;20044;-29
2022/12/28 12:14:47;;;;;;;1.88;1.67;;;;;;;16.46;54.58;96864.56;10395704;28;20037;-29
2022/12/28 12:19:54;;;;;;;2.33;1.58;;;;;;;16.51;54.56;96857.03;10389877;28;20179;-29
2022/12/28 12:25:22;;;;;;;2.28;1.52;;;;;;;16.49;54.66;96838.47;10394748;28;20048;-30
2022/12/28 12:30:23;;;;;;;2.10;1.25;;;;;;;16.40;54.72;96824.09;10396323;28;20042;-29
2022/12/28 12:35:29;;;;;;;3.63;2.25;;;;;;;16.45;54.65;96824.13;10399548;28;20055;-30
2022/12/28 12:40:29;;;;;;;1.45;1.05;;;;;;;16.45;54.89;96827.50;10403424;28;20048;-29
2022/12/28 12:45:54;;;;;;;1.83;1.38;;;;;;;16.42;54.82;96822.44;10403100;28;20052;-29
2022/12/28 12:51:24;;;;;;;2.33;1.38;;;;;;;16.45;54.75;96817.38;10399736;28;20033;-29
2022/12/28 12:56:25;;;;;;;1.48;1.02;;;;;;;16.41;54.91;96805.56;10397694;28;20033;-29
2022/12/28 13:01:34;;;;;;;1.25;1.08;;;;;;;16.35;55.24;96790.31;10401390;28;20038;-29
2022/12/28 13:06:38;;;;;;;1.63;1.13;;;;;;;16.35;55.26;96774.31;10395683;28;20058;-30
2022/12/28 13:11:38;;;;;;;1.83;1.23;;;;;;;16.36;55.43;96771.78;10400951;28;20394;-29
2022/12/28 13:16:39;;;;;;;1.63;1.00;;;;;;;16.35;55.35;96765.06;10399261;28;20030;-29
2022/12/28 13:21:45;;;;;;;1.43;1.23;;;;;;;16.30;55.15;96753.22;10396785;28;20136;-30
2022/12/28 13:26:45;;;;;;;1.40;1.10;;;;;;;16.39;55.41;96754.19;10400748;28;20061;-29
2022/12/28 13:31:48;;;;;;;1.60;1.17;;;;;;;16.35;55.38;96747.38;10402071;28;20108;-29
2022/12/28 13:36:50;;;;;;;1.48;1.20;;;;;;;16.37;55.30;96743.19;10392874;28;20148;-29
2022/12/28 13:41:52;;;;;;;1.65;1.20;;;;;;;16.29;55.21;96721.22;10399674;28;20042;-29
2022/12/28 13:47:20;;;;;;;1.58;1.30;;;;;;;16.33;55.48;96736.41;10407088;28;20453;-29
2022/12/28 13:52:27;;;;;;;1.45;1.08;;;;;;;16.26;55.52;96716.97;10398554;28;20090;-29
2022/12/28 13:57:29;;;;;;;1.52;1.10;;;;;;;16.31;55.37;96724.59;10394521;28;20037;-30
2022/12/28 14:02:32;;;;;;;2.00;1.52;;;;;;;16.32;55.09;96723.75;10402952;28;20053;-29
2022/12/28 14:07:34;;;;;;;1.88;1.27;;;;;;;16.30;55.08;96710.28;10400547;28;20110;-31
2022/12/28 14:12:35;;;;;;;1.50;1.05;;;;;;;16.23;55.53;96694.22;10394970;28;20128;-29
2022/12/28 14:17:37;;;;;;;1.50;1.05;;;;;;;16.30;55.22;96701.00;10397068;28;20029;-30
2022/12/28 14:22:39;;;;;;;1.40;1.30;;;;;;;16.29;55.62;96695.94;10397846;28;20048;-29
2022/12/28 14:27:53;;;;;;;1.55;1.23;;;;;;;16.29;55.27;96701.84;10402132;28;20029;-29
2022/12/28 14:32:54;;;;;;;1.52;1.23;;;;;;;16.27;55.18;96698.47;10392160;28;20112;-29
2022/12/28 14:37:57;;;;;;;1.65;1.17;;;;;;;16.30;55.23;96697.66;10397793;28;20041;-28
2022/12/28 14:43:02;;;;;;;1.40;1.00;;;;;;;16.29;55.52;96704.34;10398891;28;20060;-29
2022/12/28 14:48:22;;;;;;;1.98;1.27;;;;;;;16.31;55.50;96692.63;10397676;28;20042;-29
2022/12/28 14:53:22;;;;;;;1.10;1.00;;;;;;;16.32;55.23;96680.81;10397198;28;20072;-29
2022/12/28 14:58:26;;;;;;;1.13;0.98;;;;;;;16.33;55.54;96685.03;10400359;28;20145;-29
2022/12/28 15:03:29;;;;;;;1.17;1.05;;;;;;;16.32;55.01;96679.16;10396521;28;20448;-30
2022/12/28 15:08:29;;;;;;;1.42;1.13;;;;;;;16.30;55.30;96668.16;10401742;28;20037;-28
2022/12/28 15:13:30;;;;;;;1.43;1.27;;;;;;;16.28;55.52;96667.31;10396305;28;20041;-28
2022/12/28 15:18:32;;;;;;;1.45;1.10;;;;;;;16.29;55.29;96656.38;10388760;28;20041;-28
2022/12/28 15:23:32;;;;;;;1.33;1.02;;;;;;;16.29;55.08;96646.25;10395605;28;20101;-31
2022/12/28 15:28:32;;;;;;;1.37;0.97;;;;;;;16.21;55.35;96640.31;10398050;28;20041;-29
2022/12/28 15:33:34;;;;;;;1.50;1.07;;;;;;;16.29;54.94;96648.78;10397071;28;20037;-30
2022/12/28 15:38:34;;;;;;;1.10;0.80;;;;;;;16.28;55.44;96638.69;10395120;28;20034;-30
2022/12/28 15:43:35;;;;;;;1.20;1.10;;;;;;;16.28;55.44;96638.69;10397627;28;20029;-30
2022/12/28 15:48:35;;;;;;;1.57;1.00;;;;;;;16.27;55.30;96637.84;10394949;28;20064;-29
2022/12/28 15:53:35;;;;;;;1.37;1.10;;;;;;;16.22;55.29;96631.06;10396227;28;20033;-29
2022/12/28 15:58:36;;;;;;;1.53;0.90;;;;;;;16.25;55.17;96624.34;10394254;28;20025;-29
2022/12/28 16:03:36;;;;;;;1.23;1.00;;;;;;;16.26;55.87;96645.38;10394748;28;20304;-28
2022/12/28 16:08:36;;;;;;;1.20;1.00;;;;;;;16.29;55.71;96618.47;10398033;28;20033;-29
2022/12/28 16:13:37;;;;;;;1.27;1.17;;;;;;;16.28;55.30;96621.84;10394255;28;20608;-30
2022/12/28 16:18:38;;;;;;;1.05;0.95;;;;;;;16.31;55.28;96621.88;10394718;28;20044;-29
2022/12/28 16:23:42;;;;;;;1.40;1.15;;;;;;;16.30;55.46;96604.19;10394214;28;20469;-29
2022/12/28 16:28:43;;;;;;;1.33;1.00;;;;;;;16.26;54.93;96595.72;10401805;28;20037;-30
2022/12/28 16:33:43;;;;;;;1.27;1.10;;;;;;;16.25;55.08;96596.56;10392446;28;20086;-30
2022/12/28 16:38:43;;;;;;;2.10;1.00;;;;;;;16.27;55.47;96589.00;10394873;28;20049;-29
2022/12/28 16:43:45;;;;;;;1.03;0.90;;;;;;;16.23;55.16;96574.66;10389347;28;20041;-30
2022/12/28 16:48:45;;;;;;;1.08;0.80;;;;;;;16.32;55.08;96583.16;10394468;28;20022;-29
2022/12/28 16:53:46;;;;;;;1.47;1.13;;;;;;;16.32;54.83;96572.19;10393483;28;20491;-29
2022/12/28 16:58:46;;;;;;;1.50;1.07;;;;;;;16.31;54.77;96567.97;10392893;28;20523;-29
2022/12/28 17:03:46;;;;;;;0.80;0.73;;;;;;;16.26;54.89;96556.97;10393169;28;20036;-29
2022/12/28 17:08:47;;;;;;;1.73;1.13;;;;;;;16.32;54.79;96565.47;10395261;28;20044;-29
2022/12/28 17:13:47;;;;;;;1.13;1.03;;;;;;;16.33;54.68;96559.56;10398704;28;20094;-29
2022/12/28 17:18:47;;;;;;;1.63;1.10;;;;;;;16.32;54.70;96547.78;10388792;28;20029;-29
2022/12/28 17:23:48;;;;;;;1.30;1.00;;;;;;;16.35;54.98;96542.72;10400269;28;20564;-29
2022/12/28 17:28:48;;;;;;;0.83;0.80;;;;;;;16.33;54.91;96541.88;10403658;28;20057;-29
2022/12/28 17:33:52;;;;;;;1.17;0.87;;;;;;;16.35;54.65;96539.38;10403258;28;20033;-29
2022/12/28 17:38:53;;;;;;;1.58;1.08;;;;;;;16.35;54.68;96522.53;10399623;28;20693;-29
2022/12/28 17:43:55;;;;;;;1.47;1.03;;;;;;;16.28;55.27;96515.75;10402040;28;20025;-29
2022/12/28 17:48:58;;;;;;;0.88;0.75;;;;;;;16.30;55.02;96524.16;10398762;28;20029;-29
2022/12/28 17:53:58;;;;;;;1.33;0.85;;;;;;;16.28;55.36;96522.50;10399982;28;20037;-29
2022/12/28 17:58:58;;;;;;;0.70;0.67;;;;;;;16.07;55.50;96499.63;10398454;28;20037;-29
2022/12/28 18:03:59;;;;;;;1.63;1.20;;;;;;;16.14;54.99;96514.84;10397161;28;20288;-29
2022/12/28 18:08:59;;;;;;;0.90;0.70;;;;;;;16.26;55.06;96517.44;10398626;28;20488;-29
2022/12/28 18:14:00;;;;;;;1.05;0.88;;;;;;;16.29;54.74;96512.38;10401052;28;20296;-30
2022/12/28 18:19:00;;;;;;;0.83;0.80;;;;;;;16.29;54.72;96522.47;10402638;28;20030;-28
2022/12/28 18:24:00;;;;;;;1.30;0.97;;;;;;;16.32;54.83;96507.38;10397659;28;20291;-29
2022/12/28 18:29:01;;;;;;;0.83;0.63;;;;;;;16.30;54.67;96503.97;10396991;28;20044;-27
2022/12/28 18:34:01;;;;;;;1.30;0.93;;;;;;;16.35;54.77;96516.66;10398090;28;20037;-29
2022/12/28 18:39:02;;;;;;;2.00;0.90;;;;;;;16.39;55.05;96506.59;10393987;28;20042;-29
2022/12/28 18:44:03;;;;;;;1.00;0.90;;;;;;;16.39;54.81;96498.16;10398892;28;20053;-29
2022/12/28 18:49:04;;;;;;;1.10;0.82;;;;;;;16.41;54.79;96504.91;10418965;27;20038;-29
2022/12/28 18:54:04;;;;;;;1.30;0.90;;;;;;;16.44;54.42;96492.28;10474018;27;20098;-30
2022/12/28 18:59:05;;;;;;;3.92;0.90;;;;;;;16.39;55.43;96486.38;10394884;27;20060;-30
2022/12/28 19:04:06;;;;;;;5.10;1.10;;;;;;;16.43;54.61;96469.53;10417214;27;20029;-28
2022/12/28 19:09:07;;;;;;;2.20;0.70;;;;;;;16.24;54.69;96430.69;10394812;28;20029;-30
2022/12/28 19:14:11;;;;;;;3.17;0.77;;;;;;;16.37;54.79;96460.25;10387303;28;20412;-29
2022/12/28 19:19:11;;;;;;;1.73;0.73;;;;;;;16.41;55.36;96467.00;10411262;27;20033;-29
2022/12/28 19:24:15;;;;;;;4.80;1.30;;;;;;;16.35;55.08;96456.84;10453635;27;20045;-29
2022/12/28 19:29:15;;;;;;;2.20;0.70;;;;;;;16.38;55.40;96469.50;10501351;27;20040;-29
2022/12/28 19:34:15;;;;;;;1.80;0.85;;;;;;;16.38;55.37;96474.56;10397277;28;20049;-30
2022/12/28 19:39:16;;;;;;;4.03;0.90;;;;;;;16.33;55.36;96453.47;10395291;28;20094;-29
2022/12/28 19:44:19;;;;;;;4.40;0.90;;;;;;;16.34;55.58;96459.34;10393707;28;20038;-29
2022/12/28 19:49:19;;;;;;;2.22;0.80;;;;;;;16.29;55.21;96446.72;10396865;28;20133;-29
2022/12/28 19:54:19;;;;;;;0.70;0.50;;;;;;;16.37;55.60;96455.19;10394486;28;20122;-28
2022/12/28 19:59:20;;;;;;;1.67;0.80;;;;;;;16.32;55.35;96435.78;10396593;28;20292;-29
2022/12/28 20:04:20;;;;;;;0.80;0.60;;;;;;;16.31;55.61;96429.91;10398240;28;20037;-29
2022/12/28 20:09:21;;;;;;;2.10;1.00;;;;;;;16.42;55.19;96440.91;10392394;28;20026;-30
2022/12/28 20:14:21;;;;;;;2.30;0.70;;;;;;;16.34;55.73;96440.00;10392803;28;20040;-29
2022/12/28 20:19:22;;;;;;;1.23;0.60;;;;;;;16.32;55.60;96434.09;10397498;28;20793;-30
2022/12/28 20:24:23;;;;;;;1.50;0.80;;;;;;;16.36;55.75;96424.84;10395504;28;20041;-29
2022/12/28 20:29:23;;;;;;;0.80;0.63;;;;;;;16.37;55.75;96422.34;10395853;28;20037;-30
2022/12/28 20:34:24;;;;;;;2.40;0.70;;;;;;;16.30;55.51;96410.50;10392005;28;20052;-29
2022/12/28 20:39:25;;;;;;;2.60;1.00;;;;;;;16.34;55.50;96409.69;10393336;28;20037;-29
2022/12/28 20:44:29;;;;;;;0.87;0.60;;;;;;;16.36;55.50;96419.81;10393482;28;20060;-29
2022/12/28 20:49:30;;;;;;;1.30;0.70;;;;;;;16.32;55.99;96406.31;10394338;28;20107;-29
2022/12/28 20:54:31;;;;;;;0.40;0.30;;;;;;;16.33;55.58;96418.09;10397203;28;20041;-29
2022/12/28 20:59:32;;;;;;;1.92;1.00;;;;;;;16.37;55.87;96408.91;10398543;28;20046;-29
2022/12/28 21:04:33;;;;;;;1.95;0.80;;;;;;;16.32;56.09;96401.28;10417199;27;20530;-29
2022/12/28 21:09:33;;;;;;;3.73;1.00;;;;;;;16.38;55.43;96396.25;10433644;27;20032;-30
2022/12/28 21:14:33;;;;;;;0.93;0.50;;;;;;;16.48;55.37;96403.03;10453120;27;20042;-29
2022/12/28 21:19:34;;;;;;;3.13;0.67;;;;;;;16.48;55.36;96397.97;10478681;27;20033;-29
2022/12/28 21:24:34;;;;;;;1.58;1.05;;;;;;;16.53;55.22;96395.47;10504726;27;20676;-29
2022/12/28 21:29:35;;;;;;;1.73;0.60;;;;;;;16.44;55.43;96391.22;10400342;28;20181;-30
2022/12/28 21:34:35;;;;;;;1.63;0.52;;;;;;;16.43;55.54;96384.47;10400296;28;20328;-29
2022/12/28 21:39:36;;;;;;;1.77;0.63;;;;;;;16.42;55.54;96381.94;10402969;28;20030;-28
2022/12/28 21:44:36;;;;;;;1.50;0.67;;;;;;;16.37;55.61;96374.34;10398476;28;20033;-29
2022/12/28 21:49:36;;;;;;;1.67;0.60;;;;;;;16.39;55.68;96375.22;10398897;28;20062;-29
2022/12/28 21:54:37;;;;;;;0.90;0.67;;;;;;;16.41;55.64;96381.13;10401014;28;20128;-29
2022/12/28 21:59:38;;;;;;;1.23;1.05;;;;;;;16.38;55.75;96380.25;10398418;28;20041;-30
2022/12/28 22:20:37;;;;;;;2.67;0.75;;;;;;;16.28;55.44;96348.22;10394625;28;20102;-28
2022/12/28 22:25:37;;;;;;;0.80;0.53;;;;;;;16.31;55.82;96356.66;10396364;28;20051;-29
2022/12/28 22:30:38;;;;;;;1.20;0.57;;;;;;;16.33;55.56;96367.59;10402553;28;20510;-29
2022/12/28 22:35:38;;;;;;;1.27;0.60;;;;;;;16.34;55.90;96364.22;10396748;28;20037;-29
2022/12/28 22:40:38;;;;;;;1.83;0.77;;;;;;;16.28;56.08;96345.69;10399396;28;20033;-29
2022/12/28 22:45:39;;;;;;;1.27;0.77;;;;;;;16.29;55.35;96339.78;10398105;28;20296;-29
2022/12/28 22:50:39;;;;;;;1.37;0.73;;;;;;;16.32;55.66;96344.84;10398237;28;20519;-29
2022/12/28 22:55:40;;;;;;;0.60;0.60;;;;;;;16.34;55.94;96341.47;10397783;28;20033;-29
2022/12/28 23:00:40;;;;;;;1.00;0.80;;;;;;;16.33;56.01;96342.31;10396738;28;20329;-29
2022/12/28 23:05:48;;;;;;;1.20;0.60;;;;;;;16.25;55.95;96311.16;10397220;28;20044;-31
2022/12/28 23:10:54;;;;;;;0.40;0.40;;;;;;;16.29;55.75;96328.00;10395585;28;20547;-29
2022/12/28 23:15:57;;;;;;;0.50;0.40;;;;;;;16.19;55.89;96308.59;10399424;28;20029;-29
2022/12/28 23:31:35;;;;;;;1.20;0.65;;;;;;;16.29;55.84;96299.38;10397129;28;20036;-30
2022/12/28 23:36:35;;;;;;;1.13;0.70;;;;;;;16.28;55.85;96303.56;10394864;28;20044;-29
2022/12/28 23:41:48;;;;;;;0.80;0.47;;;;;;;16.18;56.12;96281.66;10392282;28;20037;-30
2022/12/28 23:46:49;;;;;;;1.13;0.70;;;;;;;16.27;55.78;96316.22;10399471;28;20861;-29
2022/12/28 23:51:50;;;;;;;1.10;0.60;;;;;;;16.26;55.97;96320.41;10397499;28;20172;-29
2022/12/28 23:56:50;;;;;;;0.77;0.60;;;;;;;16.18;56.11;96317.03;10394283;28;20026;-29
